Flight Track Log - Related Links

Times and Time Zones

All times are in EDT time to prevent confusion due to time zone crossing. See the CSZ9970 flight status page for this flight to view local times or setup timezone preferences in your user account.

Time Position Orientation Groundspeed Altitude Reporting Facility
EDT Latitude Longitude Course Direction KTS MPH feet Rate Location/Type
Thu 11:27:00 AM 39.1694 116.4092 188° South  Level Estimated
Thu 11:28:00 AM 39.0682 116.3900 188° South  Level Estimated
Thu 11:29:00 AM 38.9670 116.3709 188° South  Level Estimated
Thu 11:30:00 AM 38.8658 116.3518 188° South  Level Estimated
Thu 11:31:00 AM 38.7646 116.3328 188° South  Level Estimated
Thu 11:32:00 AM 38.6633 116.3138 188° South  Level Estimated
Thu 11:33:00 AM 38.5621 116.2949 188° South  Level Estimated
Thu 11:34:00 AM 38.4609 116.2760 188° South  Level Estimated
Thu 11:35:00 AM 38.3597 116.2572 188° South  Level Estimated
Thu 11:36:00 AM 38.2584 116.2384 188° South  Level Estimated
Thu 11:37:00 AM 38.1572 116.2197 188° South  Level Estimated
Thu 11:38:00 AM 38.0560 116.2010 188° South  Level Estimated
Thu 11:39:00 AM 37.9547 116.1824 188° South  Level Estimated
Thu 11:40:00 AM 37.8535 116.1638 188° South  Level Estimated
Thu 11:41:00 AM 37.7522 116.1453 188° South  Level Estimated
Thu 11:42:00 AM 37.6510 116.1269 188° South  Level Estimated
Thu 11:43:00 AM 37.5497 116.1085 188° South  Level Estimated
Thu 11:44:00 AM 37.4485 116.0901 188° South  Level Estimated
Thu 11:45:00 AM 37.3472 116.0718 188° South  Level Estimated
Thu 11:46:00 AM 37.2460 116.0535 188° South  Level Estimated
Thu 11:47:00 AM 37.1447 116.0353 188° South  Level Estimated
Thu 11:48:00 AM 37.0434 116.0172 188° South  Level Estimated
Thu 11:49:00 AM 36.9422 115.9990 188° South  Level Estimated
Thu 11:50:00 AM 36.8409 115.9810 188° South  Level Estimated
Thu 11:51:00 AM 36.7396 115.9630 188° South  Level Estimated
Thu 11:52:00 AM 36.6384 115.9450 188° South  Level Estimated
Thu 11:53:00 AM 36.5371 115.9271 188° South  Level Estimated
Thu 11:54:00 AM 36.4358 115.9092 188° South  Level Estimated
Thu 11:55:00 AM 36.3345 115.8913 188° South  Level Estimated
Thu 11:56:00 AM 36.2332 115.8736 188° South  Level Estimated
Thu 11:57:00 AM 36.1319 115.8558 188° South  Level Estimated
Thu 11:58:00 AM 36.0306 115.8381 188° South  Level Estimated
Thu 11:59:00 AM 35.9293 115.8205 188° South  Level Estimated
Thu 12:00:00 PM 35.8280 115.8029 188° South  Level Estimated
Thu 12:01:00 PM 35.7267 115.7853 188° South  Level Estimated
Thu 12:02:00 PM 35.6254 115.7678 188° South  Level Estimated
Thu 12:03:00 PM 35.5241 115.7503 188° South  Level Estimated
Thu 12:04:00 PM 35.4228 115.7329 188° South  Level Estimated
Thu 12:05:00 PM 35.3215 115.7155 188° South  Level Estimated
Thu 12:06:00 PM 35.2202 115.6982 188° South  Level Estimated
Thu 12:07:00 PM 35.1189 115.6809 188° South  Level Estimated
Thu 12:08:00 PM 35.0176 115.6637 188° South  Level Estimated
Thu 12:09:00 PM 34.9162 115.6464 188° South  Level Estimated
Thu 12:10:00 PM 34.8149 115.6293 188° South  Level Estimated
Thu 12:11:00 PM 34.7136 115.6122 188° South  Level Estimated
Thu 12:12:00 PM 34.6123 115.5951 188° South  Level Estimated
Thu 12:13:00 PM 34.5109 115.5780 188° South  Level Estimated
Thu 12:14:00 PM 34.4096 115.5610 188° South  Level Estimated
Thu 12:15:00 PM 34.3083 115.5441 188° South  Level Estimated
Thu 12:16:00 PM 34.2069 115.5272 188° South  Level Estimated
Thu 12:17:00 PM 34.1056 115.5103 188° South  Level Estimated
Thu 12:18:00 PM 34.0043 115.4934 188° South  Level Estimated
Thu 12:19:00 PM 33.9029 115.4767 188° South  Level Estimated
Thu 12:20:00 PM 33.8016 115.4599 188° South  Level Estimated
Thu 12:21:00 PM 33.7002 115.4432 188° South  Level Estimated
Thu 12:22:00 PM 33.5989 115.4265 188° South  Level Estimated
Thu 12:23:00 PM 33.4975 115.4099 188° South  Level Estimated
Thu 12:24:00 PM 33.3962 115.3933 188° South  Level Estimated
Thu 12:25:00 PM 33.2948 115.3767 188° South  Level Estimated
Thu 12:26:00 PM 33.1935 115.3602 188° South  Level Estimated
Thu 12:27:00 PM 33.0921 115.3437 188° South  Level Estimated
Thu 12:28:00 PM 32.9907 115.3273 188° South  Level Estimated
Thu 12:29:00 PM 32.8894 115.3109 188° South  Level Estimated
Thu 12:30:00 PM 32.7880 115.2945 188° South  Level Estimated
Thu 12:31:00 PM 32.6866 115.2782 188° South  Level Estimated
Thu 12:32:00 PM 32.5853 115.2619 188° South  Level Estimated
Thu 12:33:00 PM 32.4839 115.2456 188° South  Level Estimated
Thu 12:34:00 PM 32.3825 115.2294 188° South  Level Estimated
Thu 12:35:00 PM 32.2811 115.2132 188° South  Level Estimated
Thu 12:36:00 PM 32.1797 115.1970 188° South  Level Estimated
Thu 12:37:00 PM 32.0784 115.1809 188° South  Level Estimated
Thu 12:38:00 PM 31.9770 115.1648 188° South  Level Estimated
Thu 12:39:00 PM 31.8756 115.1488 188° South  Level Estimated
Thu 12:40:00 PM 31.7742 115.1328 188° South  Level Estimated
Thu 12:41:00 PM 31.6728 115.1168 188° South  Level Estimated
Thu 12:42:00 PM 31.5714 115.1009 188° South  Level Estimated
Thu 12:43:00 PM 31.4700 115.0850 188° South  Level Estimated
Thu 12:44:00 PM 31.3686 115.0691 188° South  Level Estimated
Thu 12:45:00 PM 31.2672 115.0533 188° South  Level Estimated
Thu 12:46:00 PM 31.1658 115.0375 188° South  Level Estimated
Thu 12:47:00 PM 31.0644 115.0217 188° South  Level Estimated
Thu 12:48:00 PM 30.9630 115.0060 188° South  Level Estimated
Thu 12:49:00 PM 30.8616 114.9903 188° South  Level Estimated
Thu 12:50:00 PM 30.7602 114.9746 188° South  Level Estimated
Thu 12:51:00 PM 30.6588 114.9590 188° South  Level Estimated
Thu 12:52:00 PM 30.5574 114.9434 188° South  Level Estimated
Thu 12:53:00 PM 30.4560 114.9278 188° South  Level Estimated
Thu 12:54:00 PM 30.3546 114.9123 188° South  Level Estimated
Thu 12:55:00 PM 30.2532 114.8968 188° South  Level Estimated
Thu 12:56:00 PM 30.1517 114.8813 188° South  Level Estimated
Thu 12:57:00 PM 30.0503 114.8659 188° South  Level Estimated
Thu 12:58:00 PM 29.9489 114.8505 187° South  Level Estimated
Thu 12:59:00 PM 29.8475 114.8351 187° South  Level Estimated
Thu 01:00:00 PM 29.7460 114.8197 187° South  Level Estimated
Thu 01:01:00 PM 29.6446 114.8044 187° South  Level Estimated
Thu 01:02:00 PM 29.5432 114.7891 187° South  Level Estimated
Thu 01:03:00 PM 29.4417 114.7739 187° South  Level Estimated
Thu 01:04:00 PM 29.3403 114.7587 187° South  Level Estimated
Thu 01:05:00 PM 29.2389 114.7435 187° South  Level Estimated
Thu 01:06:00 PM 29.1374 114.7283 187° South  Level Estimated
Thu 01:07:00 PM 29.0360 114.7132 187° South  Level Estimated
Thu 01:08:00 PM 28.9346 114.6981 187° South  Level Estimated
Thu 01:09:00 PM 28.8331 114.6830 187° South  Level Estimated
Thu 01:10:00 PM 28.7317 114.6680 187° South  Level Estimated
Thu 01:11:00 PM 28.6302 114.6529 187° South  Level Estimated
Thu 01:12:00 PM 28.5288 114.6379 187° South  Level Estimated
Thu 01:13:00 PM 28.4273 114.6230 187° South  Level Estimated
Thu 01:14:00 PM 28.3259 114.6081 187° South  Level Estimated
Thu 01:15:00 PM 28.2244 114.5932 187° South  Level Estimated
Thu 01:16:00 PM 28.1230 114.5783 187° South  Level Estimated
Thu 01:17:00 PM 28.0215 114.5635 187° South  Level Estimated
Thu 01:18:00 PM 27.9201 114.5486 187° South  Level Estimated
Thu 01:19:00 PM 27.8186 114.5339 187° South  Level Estimated
Thu 01:20:00 PM 27.7172 114.5191 187° South  Level Estimated
Thu 01:21:00 PM 27.6157 114.5044 187° South  Level Estimated
Thu 01:22:00 PM 27.5142 114.4896 187° South  Level Estimated
Thu 01:23:00 PM 27.4128 114.4750 187° South  Level Estimated
Thu 01:24:00 PM 27.3113 114.4603 187° South  Level Estimated
Thu 01:25:00 PM 27.2098 114.4457 187° South  Level Estimated
Thu 01:26:00 PM 27.1084 114.4311 187° South  Level Estimated
Thu 01:27:00 PM 27.0069 114.4165 187° South  Level Estimated
Thu 01:28:00 PM 26.9054 114.4020 187° South  Level Estimated
Thu 01:29:00 PM 26.8040 114.3875 187° South  Level Estimated
Thu 01:30:00 PM 26.7025 114.3730 187° South  Level Estimated
Thu 01:31:00 PM 26.6010 114.3585 187° South  Level Estimated
Thu 01:32:00 PM 26.4995 114.3441 187° South  Level Estimated
Thu 01:33:00 PM 26.3981 114.3297 187° South  Level Estimated
Thu 01:34:00 PM 26.2966 114.3153 187° South  Level Estimated
Thu 01:35:00 PM 26.1951 114.3009 187° South  Level Estimated
Thu 01:36:00 PM 26.0936 114.2866 187° South  Level Estimated
Thu 01:37:00 PM 25.9921 114.2722 187° South  Level Estimated
Thu 01:38:00 PM 25.8906 114.2579 187° South  Level Estimated
Thu 01:39:00 PM 25.7892 114.2437 187° South  Level Estimated
Thu 01:40:00 PM 25.6877 114.2294 187° South  Level Estimated
Thu 01:41:00 PM 25.5862 114.2152 187° South  Level Estimated
Thu 01:42:00 PM 25.4847 114.2010 187° South  Level Estimated
Thu 01:43:00 PM 25.3832 114.1869 187° South  Level Estimated
Thu 01:44:00 PM 25.2817 114.1727 187° South  Level Estimated
Thu 01:45:00 PM 25.1802 114.1586 187° South  Level Estimated
Thu 01:46:00 PM 25.0787 114.1445 187° South  Level Estimated
Thu 01:47:00 PM 24.9772 114.1304 187° South  Level Estimated
Thu 01:48:00 PM 24.8757 114.1164 187° South  Level Estimated
Thu 01:49:00 PM 24.7742 114.1023 187° South  Level Estimated
Thu 01:50:00 PM 24.6727 114.0883 187° South  Level Estimated
Thu 01:51:00 PM 24.5712 114.0743 187° South  Level Estimated
Thu 01:52:00 PM 24.4697 114.0604 187° South  Level Estimated
Thu 01:53:00 PM 24.3682 114.0464 187° South  Level Estimated
Thu 01:54:00 PM 24.2667 114.0325 187° South  Level Estimated
Thu 01:55:00 PM 24.1652 114.0186 187° South  Level Estimated
Thu 01:56:00 PM 24.0637 114.0048 187° South  Level Estimated
Thu 01:57:00 PM 23.9621 113.9909 187° South  Level Estimated
Thu 01:58:00 PM 23.8606 113.9771 187° South  Level Estimated
Thu 01:59:00 PM 23.7591 113.9633 187° South  Level Estimated
Thu 02:00:00 PM 23.6576 113.9495 187° South  Level Estimated
Thu 02:01:00 PM 23.5561 113.9357 187° South  Level Estimated
Thu 02:02:00 PM 23.4546 113.9220 187° South  Level Estimated
Thu 02:03:00 PM 23.3531 113.9083 187° South  Level Estimated
Thu 02:04:00 PM 23.2515 113.8946 187° South  Level Estimated
Thu 02:05:00 PM 23.1500 113.8809 187° South  Level Estimated
Thu 02:06:00 PM 23.0485 113.8672 187° South  Level Estimated
Thu 02:07:00 PM 22.9470 113.8536 187° South  Level Estimated
Thu 02:08:00 PM 22.8454 113.8400 187° South  Level Estimated
Thu 02:09:00 PM 22.7439 113.8264 187° South  Level Estimated
Thu 02:10:00 PM 22.6424 113.8128 187° South  Level Estimated
Thu 02:11:00 PM 22.6395 113.8124 187° South  Level Estimated
Thu 02:12:00 PM 22.6395 113.8124 North  Level Estimated
Thu 02:13:00 PM 22.6395 113.8124 North  Level Estimated
Thu 02:14:00 PM 22.6395 113.8124 North  Level Estimated
Thu 02:15:00 PM 22.6395 113.8124 North  Level Estimated
Thu 02:16:00 PM 22.6395 113.8124 North  Level Estimated
Thu 02:17:00 PM 22.6395 113.8124 North  Level Estimated
Thu 02:18:00 PM 22.6395 113.8124 North  Level Estimated
Thu 02:19:00 PM 22.6395 113.8124 North  Level Estimated

Login

Don't have an account? Register now (free) for customized features, flight alerts, and more!